Time;durP1;ratioP1;P1;durP2;ratioP2;P2;SDS_P1;SDS_P2;PMS_P1;PMS_P2;Temp;Humidity;BMP_temperature;BMP_pressure;BME280_temperature;BME280_humidity;BME280_pressure;Samples;Min_cycle;Max_cycle;Signal;HPM_P1;HPM_P2
2022/04/02 00:00:19;;;;;;;6.93;3.95;;;;;;;;;;5074923;28;25016;-52
2022/04/02 00:02:44;;;;;;;9.40;4.00;;;;;;;;;;5073068;28;24430;-51
2022/04/02 00:05:10;;;;;;;5.30;3.80;;;;;;;;;;5073379;28;24423;-50
2022/04/02 00:07:35;;;;;;;6.60;3.90;;;;;;;;;;5086443;28;24831;-51
2022/04/02 00:10:00;;;;;;;9.40;4.00;;;;;;;;;;5079493;28;24529;-50
2022/04/02 00:12:26;;;;;;;6.33;4.13;;;;;;;;;;5080341;28;24816;-50
2022/04/02 00:14:51;;;;;;;5.30;3.53;;;;;;;;;;5076165;28;24780;-51
2022/04/02 00:17:16;;;;;;;5.83;3.70;;;;;;;;;;5074108;28;24510;-51
2022/04/02 00:19:42;;;;;;;6.72;3.80;;;;;;;;;;5068022;28;24872;-50
2022/04/02 00:22:08;;;;;;;6.90;3.70;;;;;;;;;;5081145;28;24471;-50
2022/04/02 00:24:33;;;;;;;8.13;3.42;;;;;;;;;;5079048;28;24463;-50
2022/04/02 00:26:58;;;;;;;5.77;3.53;;;;;;;;;;5075189;28;24429;-50
2022/04/02 00:29:23;;;;;;;8.47;4.10;;;;;;;;;;5072685;28;24491;-51
2022/04/02 00:31:48;;;;;;;8.57;3.90;;;;;;;;;;5069439;28;24522;-50
2022/04/02 00:34:14;;;;;;;6.47;3.50;;;;;;;;;;5068579;28;24421;-50
2022/04/02 00:36:39;;;;;;;7.50;4.00;;;;;;;;;;5079190;28;24433;-50
2022/04/02 00:39:05;;;;;;;6.57;3.95;;;;;;;;;;5074955;28;24526;-50
2022/04/02 00:41:30;;;;;;;5.38;3.90;;;;;;;;;;5075684;28;24426;-50
2022/04/02 00:43:59;;;;;;;6.87;4.00;;;;;;;;;;5066058;28;24960;-51
2022/04/02 00:46:25;;;;;;;9.37;4.30;;;;;;;;;;5073438;28;24480;-50
2022/04/02 00:48:50;;;;;;;7.27;4.30;;;;;;;;;;5077284;28;24952;-58
2022/04/02 00:51:16;;;;;;;7.37;4.40;;;;;;;;;;5067615;28;24526;-50
2022/04/02 00:53:43;;;;;;;9.38;4.97;;;;;;;;;;5081201;28;24985;-50
2022/04/02 00:56:08;;;;;;;6.25;4.10;;;;;;;;;;5069472;28;24483;-51
2022/04/02 00:58:33;;;;;;;5.97;4.30;;;;;;;;;;5068426;28;25196;-50
2022/04/02 01:00:58;;;;;;;7.13;4.23;;;;;;;;;;5068239;28;24481;-52
2022/04/02 01:03:24;;;;;;;6.53;4.43;;;;;;;;;;5078823;28;24513;-51
2022/04/02 01:05:50;;;;;;;6.28;4.38;;;;;;;;;;5070118;28;24415;-52
2022/04/02 01:08:16;;;;;;;8.55;4.38;;;;;;;;;;5073026;28;25090;-51
2022/04/02 01:10:41;;;;;;;7.63;4.73;;;;;;;;;;5067027;28;24445;-51
2022/04/02 01:13:07;;;;;;;5.25;4.40;;;;;;;;;;5070049;28;24461;-51
2022/04/02 01:15:32;;;;;;;6.70;4.25;;;;;;;;;;5073536;28;24460;-52
2022/04/02 01:17:58;;;;;;;9.67;5.23;;;;;;;;;;5076053;28;24871;-52
2022/04/02 01:20:24;;;;;;;6.68;4.70;;;;;;;;;;5074034;28;24469;-51
2022/04/02 01:22:49;;;;;;;6.03;4.90;;;;;;;;;;5066843;28;24442;-52
2022/04/02 01:25:14;;;;;;;6.65;4.30;;;;;;;;;;5073748;28;24481;-52
2022/04/02 01:27:39;;;;;;;7.33;4.47;;;;;;;;;;5070172;28;24438;-52
2022/04/02 01:30:05;;;;;;;6.33;4.50;;;;;;;;;;5074183;28;24430;-50
2022/04/02 01:32:31;;;;;;;9.38;5.13;;;;;;;;;;5068957;28;24513;-51
2022/04/02 01:34:56;;;;;;;5.43;4.50;;;;;;;;;;5075546;28;24539;-51
2022/04/02 01:37:21;;;;;;;5.25;4.20;;;;;;;;;;5064958;28;24544;-51
2022/04/02 01:39:47;;;;;;;6.80;4.20;;;;;;;;;;5069035;28;24498;-51
2022/04/02 01:42:13;;;;;;;6.00;4.50;;;;;;;;;;5070818;28;25091;-50
2022/04/02 01:44:41;;;;;;;6.43;4.63;;;;;;;;;;5075036;28;24827;-51
2022/04/02 01:47:06;;;;;;;6.30;4.30;;;;;;;;;;5069556;28;24476;-51
2022/04/02 01:49:31;;;;;;;7.10;4.90;;;;;;;;;;5070909;28;24498;-50
2022/04/02 01:51:56;;;;;;;7.90;5.13;;;;;;;;;;5076955;28;24430;-52
2022/04/02 01:54:21;;;;;;;9.40;5.20;;;;;;;;;;5072419;28;24948;-51
2022/04/02 01:56:49;;;;;;;7.50;5.15;;;;;;;;;;5074693;28;24560;-50
2022/04/02 01:59:15;;;;;;;7.10;5.03;;;;;;;;;;5068421;28;24434;-50
2022/04/02 02:01:40;;;;;;;6.07;5.40;;;;;;;;;;5072963;28;24757;-50
2022/04/02 02:04:06;;;;;;;8.03;5.23;;;;;;;;;;5081821;28;24414;-51
2022/04/02 02:06:33;;;;;;;5.10;4.60;;;;;;;;;;5066636;28;24501;-50
2022/04/02 02:08:58;;;;;;;6.03;5.20;;;;;;;;;;5074746;28;24418;-52
2022/04/02 02:11:23;;;;;;;6.47;4.50;;;;;;;;;;5071148;28;24437;-50
2022/04/02 02:13:49;;;;;;;5.80;5.07;;;;;;;;;;5081845;28;24429;-51
2022/04/02 02:16:14;;;;;;;6.83;5.20;;;;;;;;;;5068030;28;24953;-51
2022/04/02 02:18:39;;;;;;;7.20;5.03;;;;;;;;;;5072300;28;24737;-50
2022/04/02 02:21:04;;;;;;;5.88;4.97;;;;;;;;;;5072001;28;24414;-50
2022/04/02 02:23:29;;;;;;;7.07;4.90;;;;;;;;;;5067775;28;24805;-50
2022/04/02 02:25:54;;;;;;;6.10;4.78;;;;;;;;;;5065857;28;24422;-50
2022/04/02 02:28:20;;;;;;;5.72;4.72;;;;;;;;;;5073085;28;24457;-50
2022/04/02 02:30:46;;;;;;;4.80;4.30;;;;;;;;;;5074258;28;24854;-50
2022/04/02 02:35:55;;;;;;;4.67;4.17;;;;;;;;;;5077946;28;25017;-51
2022/04/02 02:38:20;;;;;;;6.00;4.30;;;;;;;;;;5087410;28;24556;-51
2022/04/02 02:40:46;;;;;;;5.70;4.07;;;;;;;;;;5069473;28;24956;-50
2022/04/02 02:43:12;;;;;;;5.60;4.30;;;;;;;;;;5069462;28;25209;-50
2022/04/02 02:45:37;;;;;;;7.50;4.00;;;;;;;;;;5081825;28;24441;-52
2022/04/02 02:48:02;;;;;;;4.10;3.72;;;;;;;;;;5078944;28;24413;-51
2022/04/02 02:50:28;;;;;;;6.63;4.35;;;;;;;;;;5066496;28;24565;-51
2022/04/02 02:52:53;;;;;;;6.60;4.40;;;;;;;;;;5080170;28;24902;-51
2022/04/02 02:55:18;;;;;;;4.53;4.13;;;;;;;;;;5083565;28;24450;-51
2022/04/02 02:57:44;;;;;;;5.10;4.10;;;;;;;;;;5069185;28;24462;-50
2022/04/02 03:00:10;;;;;;;4.83;4.10;;;;;;;;;;5082609;28;24781;-50
2022/04/02 03:02:37;;;;;;;5.03;3.58;;;;;;;;;;5079601;28;24445;-50
2022/04/02 03:05:05;;;;;;;6.20;4.00;;;;;;;;;;5069132;28;24421;-51
2022/04/02 03:07:34;;;;;;;4.50;4.10;;;;;;;;;;5084688;28;24402;-51
2022/04/02 03:10:00;;;;;;;7.13;3.90;;;;;;;;;;5071335;28;24427;-51
2022/04/02 03:12:25;;;;;;;4.60;4.00;;;;;;;;;;5068230;28;24425;-51
2022/04/02 03:14:51;;;;;;;4.50;4.10;;;;;;;;;;5083940;28;24455;-51
2022/04/02 03:17:16;;;;;;;4.40;4.00;;;;;;;;;;5082271;28;24792;-52
2022/04/02 03:19:41;;;;;;;7.35;4.10;;;;;;;;;;5077088;28;25069;-51
2022/04/02 03:22:06;;;;;;;5.07;3.47;;;;;;;;;;5067674;28;24411;-52
2022/04/02 03:24:31;;;;;;;5.45;3.72;;;;;;;;;;5076812;28;24513;-51
2022/04/02 03:26:56;;;;;;;5.47;3.97;;;;;;;;;;5067753;28;24488;-50
2022/04/02 03:29:21;;;;;;;6.10;3.63;;;;;;;;;;5068460;28;24449;-50
2022/04/02 03:31:48;;;;;;;4.72;3.50;;;;;;;;;;5067437;28;24987;-50
2022/04/02 03:34:15;;;;;;;4.40;3.70;;;;;;;;;;5067037;28;24419;-51
2022/04/02 03:36:40;;;;;;;4.03;3.65;;;;;;;;;;5080185;28;24972;-51
2022/04/02 03:39:05;;;;;;;3.78;3.47;;;;;;;;;;5067117;28;24473;-50
2022/04/02 03:41:31;;;;;;;5.45;3.55;;;;;;;;;;5072123;28;24953;-51
2022/04/02 03:43:58;;;;;;;6.10;3.70;;;;;;;;;;5078702;28;24469;-51
2022/04/02 03:49:07;;;;;;;3.50;3.20;;;;;;;;;;5072159;28;25254;-51
2022/04/02 03:51:32;;;;;;;4.73;3.20;;;;;;;;;;5078117;28;24422;-51
2022/04/02 03:53:59;;;;;;;4.45;3.25;;;;;;;;;;5077674;28;24966;-52
2022/04/02 03:56:24;;;;;;;3.77;3.47;;;;;;;;;;5071984;28;24422;-51
2022/04/02 03:58:49;;;;;;;4.53;3.00;;;;;;;;;;5082319;28;24488;-51
2022/04/02 04:01:15;;;;;;;3.22;3.00;;;;;;;;;;5069940;28;24415;-51
2022/04/02 04:03:40;;;;;;;3.47;3.17;;;;;;;;;;5078140;28;24491;-50
2022/04/02 04:06:05;;;;;;;3.22;2.90;;;;;;;;;;5067380;28;24415;-50
2022/04/02 04:08:31;;;;;;;3.50;3.20;;;;;;;;;;5065472;28;24421;-50
2022/04/02 04:10:56;;;;;;;3.60;2.95;;;;;;;;;;5075914;28;24437;-51
2022/04/02 04:13:21;;;;;;;3.28;2.97;;;;;;;;;;5083614;28;24938;-51
2022/04/02 04:15:46;;;;;;;3.60;3.13;;;;;;;;;;5071782;28;24538;-51
2022/04/02 04:18:11;;;;;;;6.95;3.53;;;;;;;;;;5078859;28;24437;-51
2022/04/02 04:20:36;;;;;;;3.78;2.85;;;;;;;;;;5073222;28;24789;-52
2022/04/02 04:23:01;;;;;;;4.88;3.03;;;;;;;;;;5093029;28;24493;-51
2022/04/02 04:25:27;;;;;;;4.30;3.63;;;;;;;;;;5074616;28;24425;-51
2022/04/02 04:27:52;;;;;;;3.50;3.20;;;;;;;;;;5081803;28;24431;-51
2022/04/02 04:30:17;;;;;;;4.50;3.42;;;;;;;;;;5069718;28;24450;-51
2022/04/02 04:32:42;;;;;;;3.60;3.30;;;;;;;;;;5081505;28;24407;-51
2022/04/02 04:35:08;;;;;;;4.53;3.20;;;;;;;;;;5076778;28;25064;-53
2022/04/02 04:37:34;;;;;;;4.40;3.10;;;;;;;;;;5079547;28;24430;-51
2022/04/02 04:39:59;;;;;;;4.43;3.45;;;;;;;;;;5070997;28;24913;-51
2022/04/02 04:42:24;;;;;;;3.20;2.90;;;;;;;;;;5086630;28;24434;-51
2022/04/02 04:44:49;;;;;;;4.05;2.83;;;;;;;;;;5075901;28;24437;-51
2022/04/02 04:47:14;;;;;;;3.53;3.20;;;;;;;;;;5073878;28;24430;-51
2022/04/02 04:49:39;;;;;;;3.40;3.10;;;;;;;;;;5077032;28;24509;-50
2022/04/02 04:52:05;;;;;;;3.30;3.00;;;;;;;;;;5074565;28;24484;-51
2022/04/02 04:54:30;;;;;;;3.60;3.10;;;;;;;;;;5068047;28;24722;-50
2022/04/02 04:56:55;;;;;;;3.30;3.00;;;;;;;;;;5074438;28;24430;-51
2022/04/02 04:59:20;;;;;;;3.57;2.80;;;;;;;;;;5069326;28;24518;-51
2022/04/02 05:01:47;;;;;;;3.25;2.95;;;;;;;;;;5076399;28;24473;-51
2022/04/02 05:04:12;;;;;;;3.13;2.92;;;;;;;;;;5075165;28;24425;-51
2022/04/02 05:06:38;;;;;;;4.18;2.95;;;;;;;;;;5074472;28;24744;-51
2022/04/02 05:09:03;;;;;;;3.78;2.90;;;;;;;;;;5074930;28;24517;-50
2022/04/02 05:11:30;;;;;;;5.07;2.83;;;;;;;;;;5075416;28;25015;-51
2022/04/02 05:13:55;;;;;;;3.50;3.20;;;;;;;;;;5073127;28;24445;-50
2022/04/02 05:16:20;;;;;;;3.20;2.90;;;;;;;;;;5071647;28;24446;-52
2022/04/02 05:18:46;;;;;;;4.70;3.00;;;;;;;;;;5071497;28;24574;-50
2022/04/02 05:21:11;;;;;;;3.80;3.40;;;;;;;;;;5078132;28;24426;-52
2022/04/02 05:23:36;;;;;;;3.95;3.45;;;;;;;;;;5070513;28;24425;-52
2022/04/02 05:26:02;;;;;;;3.83;3.40;;;;;;;;;;5079120;28;24449;-52
2022/04/02 05:28:28;;;;;;;3.67;3.37;;;;;;;;;;5069144;28;24457;-52
2022/04/02 05:30:53;;;;;;;3.70;3.28;;;;;;;;;;5068561;28;25016;-52
2022/04/02 05:33:18;;;;;;;3.20;3.00;;;;;;;;;;5078597;28;25303;-51
2022/04/02 05:35:43;;;;;;;4.93;2.90;;;;;;;;;;5073334;28;24415;-51
2022/04/02 05:38:08;;;;;;;4.00;3.10;;;;;;;;;;5073519;28;24505;-51
2022/04/02 05:40:36;;;;;;;3.35;3.15;;;;;;;;;;5083627;28;24418;-51
2022/04/02 05:43:01;;;;;;;4.03;3.08;;;;;;;;;;5066712;28;24379;-51
2022/04/02 05:45:26;;;;;;;3.85;3.10;;;;;;;;;;5073738;28;24752;-53
2022/04/02 05:47:52;;;;;;;3.40;3.10;;;;;;;;;;5087537;28;24408;-52
2022/04/02 05:50:18;;;;;;;4.20;3.10;;;;;;;;;;5086781;28;25002;-53
2022/04/02 05:52:44;;;;;;;3.38;3.08;;;;;;;;;;5070692;28;24419;-51
2022/04/02 05:55:10;;;;;;;4.07;3.17;;;;;;;;;;5070212;28;24501;-51
2022/04/02 05:57:36;;;;;;;3.85;3.22;;;;;;;;;;5073106;28;24479;-52
2022/04/02 06:00:03;;;;;;;4.20;3.30;;;;;;;;;;5068359;28;24789;-51
2022/04/02 06:02:28;;;;;;;3.67;3.30;;;;;;;;;;5069751;28;24414;-51
2022/04/02 06:04:54;;;;;;;4.53;3.30;;;;;;;;;;5081673;28;24426;-52
2022/04/02 06:07:20;;;;;;;3.50;3.07;;;;;;;;;;5079417;28;24835;-52
2022/04/02 06:09:45;;;;;;;3.33;3.03;;;;;;;;;;5079144;28;24918;-52
2022/04/02 06:12:10;;;;;;;3.40;3.10;;;;;;;;;;5074176;28;24476;-51
2022/04/02 06:14:35;;;;;;;4.43;3.30;;;;;;;;;;5069259;28;24421;-52
2022/04/02 06:17:00;;;;;;;3.58;3.28;;;;;;;;;;5072373;28;24797;-51
2022/04/02 06:19:25;;;;;;;3.00;2.80;;;;;;;;;;5071263;28;24980;-52
2022/04/02 06:21:50;;;;;;;4.53;3.15;;;;;;;;;;5069917;28;24473;-51
2022/04/02 06:24:16;;;;;;;3.70;3.40;;;;;;;;;;5076029;28;24493;-52
2022/04/02 06:26:41;;;;;;;4.70;3.10;;;;;;;;;;5076629;28;24426;-52
2022/04/02 06:29:06;;;;;;;4.03;3.63;;;;;;;;;;5070929;28;24474;-51
2022/04/02 06:31:31;;;;;;;5.35;3.53;;;;;;;;;;5081477;28;24448;-51
2022/04/02 06:33:56;;;;;;;4.70;3.40;;;;;;;;;;5075476;28;24857;-51
2022/04/02 06:36:21;;;;;;;3.90;3.40;;;;;;;;;;5082612;28;24716;-51
2022/04/02 06:38:46;;;;;;;4.53;3.83;;;;;;;;;;5076287;28;24439;-51
2022/04/02 06:41:12;;;;;;;4.17;3.40;;;;;;;;;;5074251;28;24541;-50
2022/04/02 06:43:37;;;;;;;4.25;3.30;;;;;;;;;;5067096;28;24419;-51
2022/04/02 06:46:02;;;;;;;3.80;3.40;;;;;;;;;;5077400;28;24445;-52
2022/04/02 06:48:27;;;;;;;4.70;3.60;;;;;;;;;;5077722;28;24426;-51
2022/04/02 06:50:53;;;;;;;6.80;4.10;;;;;;;;;;5069267;28;24480;-51
2022/04/02 06:53:19;;;;;;;3.80;3.50;;;;;;;;;;5069255;28;24453;-52
2022/04/02 06:55:45;;;;;;;4.00;3.63;;;;;;;;;;5071652;28;24661;-52
2022/04/02 06:58:21;;;;;;;4.70;3.72;;;;;;;;;;5079948;28;24510;-52
2022/04/02 07:00:46;;;;;;;4.60;3.40;;;;;;;;;;5076458;28;24517;-52
2022/04/02 07:03:11;;;;;;;3.60;3.30;;;;;;;;;;5079153;28;24526;-51
2022/04/02 07:05:37;;;;;;;3.70;3.40;;;;;;;;;;5072628;28;25029;-53
2022/04/02 07:08:03;;;;;;;4.68;3.70;;;;;;;;;;5080642;28;24421;-52
2022/04/02 07:10:28;;;;;;;3.58;3.28;;;;;;;;;;5083635;28;24545;-52
2022/04/02 07:12:53;;;;;;;3.85;3.45;;;;;;;;;;5077855;28;24761;-52
2022/04/02 07:15:18;;;;;;;5.80;3.55;;;;;;;;;;5064821;28;24445;-52
2022/04/02 07:17:43;;;;;;;5.50;3.40;;;;;;;;;;5073984;28;24426;-51
2022/04/02 07:20:09;;;;;;;4.10;3.70;;;;;;;;;;5072497;28;24464;-51
2022/04/02 07:22:38;;;;;;;4.70;3.30;;;;;;;;;;5065664;28;24426;-52
2022/04/02 07:25:04;;;;;;;4.25;3.80;;;;;;;;;;5082572;28;24446;-53
2022/04/02 07:27:31;;;;;;;4.65;3.60;;;;;;;;;;5072036;28;24410;-51
2022/04/02 07:29:57;;;;;;;3.97;3.60;;;;;;;;;;5076426;28;24488;-52
2022/04/02 07:32:22;;;;;;;4.47;3.55;;;;;;;;;;5065674;28;24418;-52
2022/04/02 07:34:47;;;;;;;4.30;3.72;;;;;;;;;;5073285;28;24429;-51
2022/04/02 07:37:12;;;;;;;4.10;3.70;;;;;;;;;;5069847;28;24883;-53
2022/04/02 07:39:46;;;;;;;4.22;3.80;;;;;;;;;;5064699;28;24951;-53
2022/04/02 07:42:17;;;;;;;4.35;3.95;;;;;;;;;;5069825;28;25053;-53
2022/04/02 07:45:04;;;;;;;3.92;3.47;;;;;;;;;;5071785;28;24528;-52
2022/04/02 07:47:36;;;;;;;6.22;4.10;;;;;;;;;;5082061;28;24418;-52
2022/04/02 07:50:04;;;;;;;4.18;3.33;;;;;;;;;;5081508;28;24484;-52
2022/04/02 07:52:29;;;;;;;4.93;4.10;;;;;;;;;;5072770;28;24414;-52
2022/04/02 07:54:55;;;;;;;5.10;3.70;;;;;;;;;;5084048;28;24953;-51
2022/04/02 07:57:23;;;;;;;5.78;3.88;;;;;;;;;;5106953;28;24386;-52
2022/04/02 07:59:50;;;;;;;4.20;3.70;;;;;;;;;;5086652;28;24426;-51
2022/04/02 08:05:00;;;;;;;6.45;3.97;;;;;;;;;;5068430;28;24497;-52
2022/04/02 08:07:29;;;;;;;6.65;4.03;;;;;;;;;;5065975;28;24422;-53
2022/04/02 08:09:55;;;;;;;4.30;3.80;;;;;;;;;;5068195;28;24414;-53
2022/04/02 08:12:20;;;;;;;4.40;3.47;;;;;;;;;;5065196;28;24387;-52
2022/04/02 08:14:47;;;;;;;5.53;3.80;;;;;;;;;;5066271;28;24444;-52
2022/04/02 08:17:12;;;;;;;4.15;3.70;;;;;;;;;;5076084;28;25001;-52
2022/04/02 08:19:38;;;;;;;6.67;3.87;;;;;;;;;;5073325;28;24532;-51
2022/04/02 08:22:04;;;;;;;4.38;3.70;;;;;;;;;;5086228;28;24506;-52
2022/04/02 08:24:29;;;;;;;4.67;4.17;;;;;;;;;;5074749;28;24522;-53
2022/04/02 08:27:02;;;;;;;4.60;3.40;;;;;;;;;;5078782;28;24764;-52
2022/04/02 08:29:37;;;;;;;4.65;3.40;;;;;;;;;;5080704;28;24431;-52
2022/04/02 08:32:05;;;;;;;4.00;3.60;;;;;;;;;;5071756;28;24506;-52
2022/04/02 08:34:54;;;;;;;4.28;3.80;;;;;;;;;;5088739;28;24421;-52
2022/04/02 08:37:24;;;;;;;4.90;3.80;;;;;;;;;;5082251;28;24394;-52
2022/04/02 08:40:11;;;;;;;6.50;3.30;;;;;;;;;;5085405;28;25325;-51
2022/04/02 08:42:42;;;;;;;4.50;3.30;;;;;;;;;;5076074;28;25070;-53
2022/04/02 08:45:11;;;;;;;4.10;3.22;;;;;;;;;;5087893;28;24479;-50
2022/04/02 08:47:55;;;;;;;5.10;3.47;;;;;;;;;;5070418;28;24979;-51
2022/04/02 08:50:27;;;;;;;4.78;3.30;;;;;;;;;;5067037;28;24386;-52
2022/04/02 08:52:52;;;;;;;3.72;3.33;;;;;;;;;;5067038;28;24440;-53
2022/04/02 08:55:20;;;;;;;6.57;3.53;;;;;;;;;;5067293;28;24434;-52
2022/04/02 08:57:58;;;;;;;4.60;3.33;;;;;;;;;;5067553;28;24402;-51
2022/04/02 09:00:25;;;;;;;4.70;4.30;;;;;;;;;;5085180;28;24422;-51
2022/04/02 09:02:54;;;;;;;5.72;4.60;;;;;;;;;;5078031;28;24984;-52
2022/04/02 09:05:31;;;;;;;4.65;4.05;;;;;;;;;;5077534;28;24940;-52
2022/04/02 09:07:56;;;;;;;3.55;3.22;;;;;;;;;;5071629;28;24441;-53
2022/04/02 09:10:32;;;;;;;5.28;3.30;;;;;;;;;;5066820;28;24540;-52
2022/04/02 09:13:16;;;;;;;5.20;3.70;;;;;;;;;;5067969;28;24403;-53
2022/04/02 09:15:53;;;;;;;4.63;4.07;;;;;;;;;;5067216;28;24409;-53
2022/04/02 09:18:36;;;;;;;4.40;3.70;;;;;;;;;;5066906;28;24967;-53
2022/04/02 09:21:20;;;;;;;4.70;3.72;;;;;;;;;;5068915;28;24423;-53
2022/04/02 09:24:04;;;;;;;4.97;3.70;;;;;;;;;;5079245;28;24426;-52
2022/04/02 09:26:35;;;;;;;4.00;3.60;;;;;;;;;;5075505;28;24514;-52
2022/04/02 09:29:03;;;;;;;6.10;3.70;;;;;;;;;;5068264;28;24488;-52
2022/04/02 09:31:43;;;;;;;5.25;4.13;;;;;;;;;;5078216;28;24539;-52
2022/04/02 09:34:08;;;;;;;4.83;3.83;;;;;;;;;;5076696;28;24403;-52
2022/04/02 09:36:53;;;;;;;4.05;3.60;;;;;;;;;;5087200;28;24397;-53
2022/04/02 09:39:21;;;;;;;3.70;3.40;;;;;;;;;;5084509;28;24460;-53
2022/04/02 09:41:55;;;;;;;4.38;3.75;;;;;;;;;;5084013;28;24422;-52
2022/04/02 09:44:41;;;;;;;4.35;3.80;;;;;;;;;;5087095;28;24737;-52
2022/04/02 09:47:14;;;;;;;4.10;3.70;;;;;;;;;;5085357;28;24418;-53
2022/04/02 09:49:59;;;;;;;4.25;3.70;;;;;;;;;;5086592;28;24410;-52
2022/04/02 09:52:25;;;;;;;5.22;3.88;;;;;;;;;;5084720;28;24462;-52
2022/04/02 09:54:56;;;;;;;4.00;3.50;;;;;;;;;;5084585;28;24496;-53
2022/04/02 09:57:24;;;;;;;5.90;4.38;;;;;;;;;;5066650;28;24822;-52
2022/04/02 09:59:49;;;;;;;4.03;3.60;;;;;;;;;;5072347;28;24504;-52
2022/04/02 10:02:26;;;;;;;3.45;3.00;;;;;;;;;;5093051;28;24428;-53
2022/04/02 10:04:59;;;;;;;4.88;3.50;;;;;;;;;;5078231;28;25510;-53
2022/04/02 10:07:40;;;;;;;3.90;3.42;;;;;;;;;;5080714;28;24501;-52
2022/04/02 10:10:06;;;;;;;4.68;3.70;;;;;;;;;;5080656;28;24991;-53
2022/04/02 10:12:36;;;;;;;3.20;2.80;;;;;;;;;;5085938;28;24402;-56
2022/04/02 10:15:03;;;;;;;4.05;3.00;;;;;;;;;;5066642;28;24433;-52
2022/04/02 10:17:28;;;;;;;4.10;3.70;;;;;;;;;;5081058;28;24448;-53
2022/04/02 10:19:55;;;;;;;3.83;3.00;;;;;;;;;;5085957;28;24434;-52
2022/04/02 10:22:25;;;;;;;3.70;3.30;;;;;;;;;;5067006;28;24457;-50
2022/04/02 10:24:50;;;;;;;6.38;3.40;;;;;;;;;;5080679;28;24496;-52
2022/04/02 10:27:32;;;;;;;4.57;2.97;;;;;;;;;;5080520;28;24443;-53
2022/04/02 10:30:02;;;;;;;3.63;3.20;;;;;;;;;;5079229;28;24445;-52
2022/04/02 10:32:46;;;;;;;4.65;3.15;;;;;;;;;;5077226;28;24983;-51
2022/04/02 10:35:13;;;;;;;4.70;3.10;;;;;;;;;;5066612;28;24835;-53
2022/04/02 10:37:39;;;;;;;4.38;3.40;;;;;;;;;;5065977;28;24418;-52
2022/04/02 10:40:06;;;;;;;3.53;2.90;;;;;;;;;;5099148;28;24801;-52
2022/04/02 10:42:37;;;;;;;6.32;3.78;;;;;;;;;;5105353;28;24405;-52
2022/04/02 10:45:04;;;;;;;4.10;3.25;;;;;;;;;;5067583;28;24568;-52
2022/04/02 10:47:30;;;;;;;3.17;2.80;;;;;;;;;;5085647;28;24840;-53
2022/04/02 10:50:06;;;;;;;3.15;2.85;;;;;;;;;;5085630;28;24429;-53
2022/04/02 10:52:31;;;;;;;3.20;2.90;;;;;;;;;;5081561;28;25397;-53
2022/04/02 10:54:57;;;;;;;4.18;3.20;;;;;;;;;;5079899;28;24433;-53
2022/04/02 10:57:22;;;;;;;3.13;2.80;;;;;;;;;;5081837;28;24429;-53
2022/04/02 10:59:48;;;;;;;4.20;2.90;;;;;;;;;;5076326;28;24561;-52
2022/04/02 11:02:22;;;;;;;3.47;2.88;;;;;;;;;;5070741;28;24495;-51
2022/04/02 11:04:52;;;;;;;3.17;2.50;;;;;;;;;;5076788;28;24860;-52
2022/04/02 11:07:30;;;;;;;4.70;2.53;;;;;;;;;;5080041;28;25057;-52
2022/04/02 11:10:01;;;;;;;3.03;2.50;;;;;;;;;;5075757;28;24726;-53
2022/04/02 11:12:30;;;;;;;4.50;2.67;;;;;;;;;;5068165;28;24402;-51
2022/04/02 11:15:05;;;;;;;4.23;2.33;;;;;;;;;;5079331;28;24800;-53
2022/04/02 11:17:32;;;;;;;4.00;3.05;;;;;;;;;;5071008;28;24417;-52
2022/04/02 11:20:03;;;;;;;5.97;3.10;;;;;;;;;;5080571;28;24523;-52
2022/04/02 11:22:29;;;;;;;5.07;3.10;;;;;;;;;;5077564;28;24407;-53
2022/04/02 11:25:03;;;;;;;7.00;3.20;;;;;;;;;;5070001;28;24426;-57
2022/04/02 11:27:29;;;;;;;4.60;3.00;;;;;;;;;;5073741;28;24948;-52
2022/04/02 11:29:58;;;;;;;3.70;2.60;;;;;;;;;;5069706;28;24507;-52
2022/04/02 11:32:25;;;;;;;3.60;2.80;;;;;;;;;;5086380;28;24581;-53
2022/04/02 11:34:51;;;;;;;4.50;2.83;;;;;;;;;;5081280;28;25047;-52
2022/04/02 11:37:19;;;;;;;4.85;2.80;;;;;;;;;;5085720;28;24418;-52
2022/04/02 11:39:49;;;;;;;4.25;2.80;;;;;;;;;;5081652;28;24492;-53
2022/04/02 11:42:16;;;;;;;4.10;2.70;;;;;;;;;;5073146;28;25051;-53
2022/04/02 11:44:49;;;;;;;3.73;2.50;;;;;;;;;;5072072;28;25081;-53
2022/04/02 11:47:17;;;;;;;3.13;2.58;;;;;;;;;;5079471;28;24779;-52
2022/04/02 11:49:43;;;;;;;4.20;2.92;;;;;;;;;;5079038;28;24506;-53
2022/04/02 11:52:12;;;;;;;3.40;2.70;;;;;;;;;;5085962;28;24501;-53
2022/04/02 11:54:40;;;;;;;3.50;2.65;;;;;;;;;;5080342;28;24665;-52
2022/04/02 11:57:10;;;;;;;2.95;2.65;;;;;;;;;;5071097;28;24500;-53
2022/04/02 11:59:35;;;;;;;3.25;2.95;;;;;;;;;;5069794;28;24980;-53
2022/04/02 12:02:01;;;;;;;5.30;2.90;;;;;;;;;;5071878;28;24442;-53
2022/04/02 12:04:26;;;;;;;5.07;2.80;;;;;;;;;;5071826;28;24433;-53
2022/04/02 12:06:52;;;;;;;4.35;2.90;;;;;;;;;;5077151;28;25006;-53
2022/04/02 12:09:19;;;;;;;3.70;3.10;;;;;;;;;;5082649;28;24448;-52
2022/04/02 12:11:48;;;;;;;4.20;3.08;;;;;;;;;;5069248;28;24978;-53
2022/04/02 12:14:25;;;;;;;3.55;2.80;;;;;;;;;;5068064;28;24594;-53
2022/04/02 12:16:55;;;;;;;3.80;2.95;;;;;;;;;;5068186;28;24955;-52
2022/04/02 12:19:22;;;;;;;4.13;3.00;;;;;;;;;;5067828;28;24434;-53
2022/04/02 12:21:47;;;;;;;6.90;2.90;;;;;;;;;;5081212;28;25102;-54
2022/04/02 12:24:13;;;;;;;4.13;3.20;;;;;;;;;;5088179;28;24505;-53
2022/04/02 12:26:39;;;;;;;3.30;2.80;;;;;;;;;;5088185;28;24927;-51
2022/04/02 12:29:04;;;;;;;3.20;2.50;;;;;;;;;;5088030;28;24975;-52
2022/04/02 12:31:34;;;;;;;3.03;2.50;;;;;;;;;;5079792;28;24417;-52
2022/04/02 12:34:00;;;;;;;3.05;2.75;;;;;;;;;;5067505;28;24464;-51
2022/04/02 12:36:29;;;;;;;4.20;2.70;;;;;;;;;;5067926;28;24855;-52
2022/04/02 12:38:58;;;;;;;4.20;2.85;;;;;;;;;;5067412;28;25128;-54
2022/04/02 12:41:25;;;;;;;2.78;2.58;;;;;;;;;;5067871;28;24406;-53
2022/04/02 12:43:57;;;;;;;3.40;2.60;;;;;;;;;;5067797;28;24386;-53
2022/04/02 12:46:24;;;;;;;3.85;2.85;;;;;;;;;;5067935;28;24382;-54
2022/04/02 12:48:50;;;;;;;4.82;2.80;;;;;;;;;;5067634;28;24781;-52
2022/04/02 12:51:16;;;;;;;3.50;2.70;;;;;;;;;;5066188;28;24980;-52
2022/04/02 12:53:48;;;;;;;4.10;3.00;;;;;;;;;;5076174;28;24429;-52
2022/04/02 12:56:39;;;;;;;4.15;2.70;;;;;;;;;;5067568;28;24402;-53
2022/04/02 12:59:14;;;;;;;3.30;2.60;;;;;;;;;;5063673;28;24442;-53
2022/04/02 13:01:40;;;;;;;3.60;2.37;;;;;;;;;;5066440;28;24421;-53
2022/04/02 13:04:08;;;;;;;2.40;2.20;;;;;;;;;;5067320;28;24415;-53
2022/04/02 13:06:34;;;;;;;2.70;2.50;;;;;;;;;;5067668;28;24394;-53
2022/04/02 13:09:06;;;;;;;3.63;2.60;;;;;;;;;;5079554;28;24951;-53
2022/04/02 13:11:44;;;;;;;3.45;2.60;;;;;;;;;;5086828;28;25155;-53
2022/04/02 13:14:19;;;;;;;3.90;2.90;;;;;;;;;;5079118;28;24452;-53
2022/04/02 13:16:46;;;;;;;3.45;2.90;;;;;;;;;;5087256;28;25023;-52
2022/04/02 13:22:01;;;;;;;3.60;2.80;;;;;;;;;;5065701;28;24978;-52
2022/04/02 13:24:27;;;;;;;2.97;2.70;;;;;;;;;;5075400;28;24460;-52
2022/04/02 13:27:09;;;;;;;4.57;2.50;;;;;;;;;;5084553;28;24394;-52
2022/04/02 13:29:47;;;;;;;3.50;2.60;;;;;;;;;;5083546;28;24467;-52
2022/04/02 13:32:24;;;;;;;2.90;2.60;;;;;;;;;;5080281;28;24571;-52
2022/04/02 13:35:02;;;;;;;3.80;2.60;;;;;;;;;;5073391;28;24425;-52
2022/04/02 13:37:43;;;;;;;3.10;2.50;;;;;;;;;;5077501;28;24438;-53
2022/04/02 13:40:13;;;;;;;3.33;2.90;;;;;;;;;;5066534;28;25018;-52
2022/04/02 13:42:43;;;;;;;2.90;2.70;;;;;;;;;;5065597;28;24549;-52
2022/04/02 13:45:11;;;;;;;3.40;2.40;;;;;;;;;;5071093;28;24414;-53
2022/04/02 13:47:39;;;;;;;2.97;2.53;;;;;;;;;;5073410;28;24423;-52
2022/04/02 13:50:05;;;;;;;2.72;2.40;;;;;;;;;;5067225;28;24433;-52
2022/04/02 13:52:30;;;;;;;2.95;2.75;;;;;;;;;;5065631;28;24833;-52
2022/04/02 13:55:06;;;;;;;3.40;2.63;;;;;;;;;;5067000;28;24420;-52
2022/04/02 13:57:32;;;;;;;4.63;2.80;;;;;;;;;;5085012;28;24487;-53
2022/04/02 13:59:58;;;;;;;3.30;2.50;;;;;;;;;;5087353;28;24465;-52
2022/04/02 14:02:30;;;;;;;3.00;2.70;;;;;;;;;;5070565;28;24454;-52
2022/04/02 14:05:18;;;;;;;3.33;3.03;;;;;;;;;;5067081;28;24493;-53
2022/04/02 14:08:00;;;;;;;3.00;2.70;;;;;;;;;;5073140;28;24438;-54
2022/04/02 14:10:36;;;;;;;3.38;2.92;;;;;;;;;;5084763;28;24433;-52
2022/04/02 14:13:07;;;;;;;3.45;2.92;;;;;;;;;;5066305;28;24486;-52
2022/04/02 14:15:34;;;;;;;3.00;2.70;;;;;;;;;;5065926;28;25234;-53
2022/04/02 14:18:02;;;;;;;3.20;2.90;;;;;;;;;;5066723;28;25269;-53
2022/04/02 14:20:27;;;;;;;3.10;2.80;;;;;;;;;;5065709;28;24496;-52
2022/04/02 14:22:59;;;;;;;4.00;3.10;;;;;;;;;;5064753;28;24453;-53
2022/04/02 14:25:47;;;;;;;2.97;2.78;;;;;;;;;;5073178;28;24821;-52
2022/04/02 14:28:22;;;;;;;4.32;3.15;;;;;;;;;;5087321;28;24434;-53
2022/04/02 14:30:47;;;;;;;4.35;3.22;;;;;;;;;;5080314;28;24418;-52
2022/04/02 14:33:18;;;;;;;3.80;2.80;;;;;;;;;;5069815;28;24909;-51
2022/04/02 14:35:49;;;;;;;4.00;3.00;;;;;;;;;;5070051;28;24496;-52
2022/04/02 14:38:33;;;;;;;3.33;2.95;;;;;;;;;;5070089;28;24426;-52
2022/04/02 14:41:06;;;;;;;3.63;3.00;;;;;;;;;;5068961;28;24426;-53
2022/04/02 14:43:43;;;;;;;4.13;3.20;;;;;;;;;;5070192;28;24390;-51
2022/04/02 14:46:24;;;;;;;3.25;2.90;;;;;;;;;;5074863;28;24414;-52
2022/04/02 14:48:50;;;;;;;3.15;2.85;;;;;;;;;;5070475;28;24981;-52
2022/04/02 14:51:24;;;;;;;4.03;3.22;;;;;;;;;;5069596;28;25309;-52
2022/04/02 14:53:59;;;;;;;4.28;3.08;;;;;;;;;;5071878;28;24425;-52
2022/04/02 14:56:36;;;;;;;3.30;3.00;;;;;;;;;;5074066;28;24568;-51
2022/04/02 14:59:04;;;;;;;3.53;3.23;;;;;;;;;;5073798;28;24998;-53